Currently 89°F in Lake Elsinore, California, USA
89°F
89°F / 45°F
calm
0.00"
Tuesday, November 30, 2021 12:50 PM PST

Lake Elsinore, California Weather Summary
Last 36 Hours

Temperature Winds Hourly Humidity Dewpoint
Time Report Norm Report Norm Max Gusts Precip. Rpt. Norm Rpt. Norm Pressure
1,2Tue 12:50 PM  89.2°F  69°F  calm  2 mph  13 mph  0.00"  5%  37%  8°F  41°F  N/A
Tue 12:00 PM  87.8°F  68°F  6 mph W  2 mph  18 mph  0.00"  6%  39%  11°F  41°F  N/A
Tue 11:00 AM  80.4°F  66°F  calm  2 mph  4 mph  0.00"  14%  44%  26°F  42°F  N/A
Tue 10:00 AM  79.4°F  62°F  calm  1 mph  none  0.00"  16%  51%  28°F  43°F  N/A
Tue 09:00 AM  68.4°F  58°F  calm  1 mph  3 mph  0.00"  31%  62%  35°F  44°F  N/A
Tue 08:00 AM  58.2°F  52°F  calm  1 mph  none  0.00"  44%  72%  35°F  43°F  N/A
Tue 07:00 AM  45.3°F  45°F  calm  1 mph  none  0.00"  62%  77%  33°F  38°F  N/A
3Tue 06:43 AM  45.2°F  45°F  calm  1 mph  none  ----  61%  77%  32°F  38°F  N/A
Tue 06:00 AM  45.8°F  45°F  calm  1 mph  3 mph  0.00"  62%  77%  33°F  38°F  N/A
Tue 05:00 AM  46.4°F  46°F  calm  1 mph  none  0.00"  57%  76%  31°F  38°F  N/A
Tue 04:00 AM  47.2°F  46°F  calm  1 mph  none  0.00"  54%  75%  31°F  38°F  N/A
Tue 03:00 AM  48.0°F  47°F  calm  1 mph  none  0.00"  51%  74%  30°F  38°F  N/A
Tue 02:00 AM  49.3°F  47°F  calm  calm  none  0.00"  49%  73%  30°F  39°F  N/A
Tue 01:00 AM  50.4°F  48°F  calm  calm  none  0.00"  48%  72%  31°F  39°F  N/A
Tue 12:00 AM  51.9°F  49°F  calm  calm  none  0.00"  47%  70%  31°F  39°F  N/A
Mon 11:00 PM  53.6°F  49°F  calm  calm  none  0.00"  42%  69%  30°F  39°F  N/A
Mon 10:00 PM  55.8°F  51°F  calm  calm  none  0.00"  38%  66%  30°F  39°F  N/A
Mon 09:00 PM  58.2°F  52°F  calm  calm  2 mph  0.00"  36%  64%  31°F  40°F  N/A
Mon 08:00 PM  61.1°F  54°F  calm  1 mph  none  0.00"  31%  61%  29°F  40°F  N/A
Mon 07:00 PM  64.3°F  56°F  calm  1 mph  none  0.00"  25%  57%  27°F  40°F  N/A
Mon 06:00 PM  68.1°F  58°F  calm  1 mph  none  0.00"  24%  54%  28°F  41°F  N/A
Mon 05:00 PM  74.9°F  61°F  calm  1 mph  5 mph  0.00"  16%  48%  24°F  41°F  N/A
Mon 04:00 PM  82.5°F  66°F  3 mph SW  2 mph  9 mph  0.00"  9%  42%  15°F  42°F  N/A
Mon 03:00 PM  89.1°F  70°F  3 mph NW  3 mph  8 mph  0.00"  5%  37%  6°F  41°F  N/A
Mon 02:00 PM  90.7°F  70°F  calm  2 mph  5 mph  0.00"  4%  36%  4°F  41°F  N/A
Mon 01:00 PM  87.0°F  70°F  calm  2 mph  3 mph  0.00"  7%  37%  13°F  41°F  N/A
Mon 12:00 PM  83.6°F  69°F  1 mph E  2 mph  4 mph  0.00"  7%  39%  11°F  42°F  N/A
Mon 11:00 AM  81.0°F  66°F  calm  2 mph  2 mph  0.00"  11%  43%  19°F  42°F  N/A
Mon 10:00 AM  74.4°F  63°F  calm  2 mph  none  0.00"  15%  51%  22°F  44°F  N/A
Mon 09:00 AM  63.0°F  58°F  calm  1 mph  3 mph  0.00"  30%  61%  30°F  45°F  N/A
Mon 08:00 AM  58.7°F  52°F  calm  1 mph  none  0.00"  42%  72%  34°F  43°F  N/A
Mon 07:00 AM  46.6°F  46°F  calm  1 mph  none  0.00"  47%  77%  26°F  39°F  N/A
Mon 06:00 AM  47.0°F  46°F  calm  1 mph  none  0.00"  46%  77%  26°F  39°F  N/A
Mon 05:00 AM  47.1°F  46°F  calm  1 mph  none  0.00"  46%  76%  27°F  39°F  N/A
Mon 04:00 AM  47.7°F  47°F  calm  1 mph  none  0.00"  45%  75%  27°F  39°F  N/A
Mon 03:00 AM  48.6°F  47°F  calm  1 mph  none  0.00"  44%  74%  27°F  39°F  N/A
Mon 02:00 AM  49.5°F  48°F  calm  calm  none  0.00"  42%  73%  26°F  39°F  N/A
Mon 01:00 AM  50.6°F  48°F  calm  calm  1 mph  0.00"  38%  72%  25°F  39°F  N/A

  1. Current weather data. No green row appears if the current weather data is also the high or low for the current day.
  2. High temperature for the current day.
  3. Low temperature for the current day.

The Lake Elsinore, California weather pages are a service of WeatherCurrents. Lake Elsinore is located south of Corona and north of the Temecula Valley, in southwestern Riverside County, California.
Copyright ©2021  WeatherCurrents. All rights reserved. - Submit questions and comments - Privacy Policy

This page automatically refreshes every 10 minutes.